sensor_id;sensor_type;location;lat;lon;timestamp;P1;P4;P2;P0;N10;N4;N25;N1;N05;TS
73340;SPS30;61578;52.002;5.468;2023-02-01T00:00:20;10.40;9.44;7.63;5.13;40.84;40.73;40.31;37.76;28.81;0.78
73340;SPS30;61578;52.002;5.468;2023-02-01T00:00:51;10.27;9.33;7.56;5.10;40.58;40.48;40.07;37.56;28.72;0.79
73340;SPS30;61578;52.002;5.468;2023-02-01T00:01:22;10.17;9.23;7.45;5.00;39.78;39.68;39.26;36.75;28.01;0.78
73340;SPS30;61578;52.002;5.468;2023-02-01T00:01:52;10.01;9.09;7.34;4.93;39.23;39.13;38.72;36.26;27.65;0.79
73340;SPS30;61578;52.002;5.468;2023-02-01T00:02:23;10.38;9.41;7.56;5.02;39.98;39.88;39.45;36.85;27.96;0.79
73340;SPS30;61578;52.002;5.468;2023-02-01T00:02:54;10.12;9.19;7.42;4.97;39.57;39.47;39.06;36.56;27.86;0.78
73340;SPS30;61578;52.002;5.468;2023-02-01T00:03:24;9.57;8.69;7.01;4.69;37.36;37.27;36.87;34.51;26.29;0.78
73340;SPS30;61578;52.002;5.468;2023-02-01T00:03:56;9.46;8.57;6.88;4.56;36.33;36.23;35.84;33.46;25.37;0.79
73340;SPS30;61578;52.002;5.468;2023-02-01T00:04:27;10.57;9.55;7.63;5.00;39.85;39.74;39.29;36.59;27.59;0.79
73340;SPS30;61578;52.002;5.468;2023-02-01T00:04:58;10.71;9.68;7.72;5.04;40.19;40.08;39.62;36.88;27.76;0.80
73340;SPS30;61578;52.002;5.468;2023-02-01T00:05:28;9.78;8.85;7.09;4.67;37.21;37.11;36.70;34.23;25.88;0.79
73340;SPS30;61578;52.002;5.468;2023-02-01T00:05:59;10.14;9.22;7.46;5.03;40.06;39.96;39.55;37.08;28.34;0.78
73340;SPS30;61578;52.002;5.468;2023-02-01T00:06:30;10.11;9.22;7.53;5.17;41.14;41.04;40.64;38.25;29.48;0.77
73340;SPS30;61578;52.002;5.468;2023-02-01T00:07:01;10.10;9.21;7.52;5.16;41.05;40.95;40.55;38.16;29.41;0.77
73340;SPS30;61578;52.002;5.468;2023-02-01T00:07:32;10.53;9.59;7.81;5.33;42.37;42.27;41.85;39.32;30.21;0.78
73340;SPS30;61578;52.002;5.468;2023-02-01T00:08:02;9.27;8.44;6.85;4.66;37.03;36.94;36.57;34.33;26.32;0.77
73340;SPS30;61578;52.002;5.468;2023-02-01T00:08:33;9.13;8.32;6.79;4.66;37.08;36.99;36.63;34.46;26.55;0.76
73340;SPS30;61578;52.002;5.468;2023-02-01T00:09:06;8.74;7.96;6.49;4.44;35.31;35.23;34.88;32.80;25.23;0.75
73340;SPS30;61578;52.002;5.468;2023-02-01T00:09:37;8.74;7.96;6.48;4.41;35.11;35.03;34.68;32.58;25.02;0.76
73340;SPS30;61578;52.002;5.468;2023-02-01T00:10:11;9.48;8.62;6.97;4.70;37.43;37.34;36.96;34.64;26.47;0.77
73340;SPS30;61578;52.002;5.468;2023-02-01T00:10:42;9.67;8.78;7.09;4.75;37.82;37.72;37.33;34.94;26.63;0.77
73340;SPS30;61578;52.002;5.468;2023-02-01T00:11:13;9.81;8.91;7.19;4.82;38.40;38.30;37.90;35.48;27.05;0.78
73340;SPS30;61578;52.002;5.468;2023-02-01T00:11:44;9.44;8.54;6.84;4.50;35.87;35.77;35.37;32.98;24.92;0.80
73340;SPS30;61578;52.002;5.468;2023-02-01T00:12:15;9.59;8.67;6.93;4.54;36.15;36.05;35.65;33.20;25.03;0.81
73340;SPS30;61578;52.002;5.468;2023-02-01T00:12:45;9.87;8.93;7.14;4.68;37.31;37.21;36.79;34.27;25.85;0.82
73340;SPS30;61578;52.002;5.468;2023-02-01T00:13:16;11.62;10.46;8.26;5.26;41.97;41.84;41.33;38.25;28.43;0.84
73340;SPS30;61578;52.002;5.468;2023-02-01T00:13:47;11.28;10.13;7.95;4.99;39.82;39.70;39.19;36.15;26.66;0.85
73340;SPS30;61578;52.002;5.468;2023-02-01T00:14:18;12.04;10.78;8.39;5.16;41.22;41.09;40.53;37.20;27.14;0.86
73340;SPS30;61578;52.002;5.468;2023-02-01T00:14:49;11.59;10.38;8.07;4.96;39.61;39.48;38.95;35.73;26.05;0.85
73340;SPS30;61578;52.002;5.468;2023-02-01T00:15:19;11.32;10.13;7.85;4.79;38.32;38.20;37.67;34.51;25.07;0.86
73340;SPS30;61578;52.002;5.468;2023-02-01T00:15:50;12.29;10.97;8.44;5.06;40.47;40.33;39.75;36.24;26.05;0.87
73340;SPS30;61578;52.002;5.468;2023-02-01T00:16:22;12.03;10.72;8.23;4.90;39.17;39.03;38.45;35.00;25.05;0.87
73340;SPS30;61578;52.002;5.468;2023-02-01T00:16:57;11.58;10.34;7.97;4.80;38.40;38.27;37.72;34.44;24.82;0.86
73340;SPS30;61578;52.002;5.468;2023-02-01T00:17:27;11.82;10.58;8.24;5.08;40.56;40.43;39.88;36.62;26.74;0.85
73340;SPS30;61578;52.002;5.468;2023-02-01T00:17:58;11.43;10.23;7.97;4.91;39.21;39.09;38.56;35.40;25.85;0.85
73340;SPS30;61578;52.002;5.468;2023-02-01T00:18:29;11.32;10.11;7.81;4.73;37.79;37.66;37.13;33.93;24.53;0.86
73340;SPS30;61578;52.002;5.468;2023-02-01T00:19:06;12.06;10.75;8.27;4.94;39.56;39.42;38.85;35.40;25.41;0.88
73340;SPS30;61578;52.002;5.468;2023-02-01T00:19:44;12.08;10.73;8.18;4.78;38.27;38.13;37.54;34.01;24.07;0.89
73340;SPS30;61578;52.002;5.468;2023-02-01T00:20:14;13.41;11.92;9.08;5.29;42.36;42.20;41.54;37.61;26.58;0.89
73340;SPS30;61578;52.002;5.468;2023-02-01T00:20:46;13.65;12.13;9.24;5.39;43.19;43.03;42.36;38.37;27.14;0.88
73340;SPS30;61578;52.002;5.468;2023-02-01T00:21:18;12.82;11.41;8.73;5.16;41.29;41.14;40.52;36.82;26.23;0.89
73340;SPS30;61578;52.002;5.468;2023-02-01T00:21:50;12.47;11.11;8.53;5.08;40.61;40.47;39.87;36.29;25.97;0.89
73340;SPS30;61578;52.002;5.468;2023-02-01T00:22:21;12.07;10.76;8.28;4.95;39.60;39.47;38.89;35.45;25.45;0.88
73340;SPS30;61578;52.002;5.468;2023-02-01T00:22:52;12.18;10.86;8.34;4.97;39.79;39.65;39.06;35.57;25.49;0.88
73340;SPS30;61578;52.002;5.468;2023-02-01T00:23:23;11.25;10.03;7.73;4.64;37.08;36.96;36.42;33.22;23.89;0.87
73340;SPS30;61578;52.002;5.468;2023-02-01T00:23:53;11.71;10.40;7.92;4.62;36.98;36.85;36.27;32.84;23.21;0.89
73340;SPS30;61578;52.002;5.468;2023-02-01T00:24:24;12.20;10.83;8.22;4.75;38.04;37.90;37.30;33.69;23.68;0.88
73340;SPS30;61578;52.002;5.468;2023-02-01T00:24:55;10.94;9.71;7.38;4.28;34.27;34.14;33.60;30.37;21.39;0.88
73340;SPS30;61578;52.002;5.468;2023-02-01T00:25:26;10.78;9.57;7.28;4.23;33.89;33.76;33.23;30.06;21.21;0.88
73340;SPS30;61578;52.002;5.468;2023-02-01T00:25:59;11.63;10.34;7.89;4.62;37.02;36.88;36.32;32.92;23.34;0.88
73340;SPS30;61578;52.002;5.468;2023-02-01T00:26:33;11.14;9.93;7.63;4.55;36.38;36.25;35.72;32.53;23.30;0.88
73340;SPS30;61578;52.002;5.468;2023-02-01T00:27:15;11.56;10.32;7.96;4.78;38.27;38.14;37.59;34.31;24.71;0.87
73340;SPS30;61578;52.002;5.468;2023-02-01T00:27:48;11.37;10.14;7.81;4.67;37.40;37.27;36.73;33.48;24.06;0.88
73340;SPS30;61578;52.002;5.468;2023-02-01T00:28:20;11.19;9.96;7.63;4.51;36.08;35.95;35.41;32.17;22.93;0.87
73340;SPS30;61578;52.002;5.468;2023-02-01T00:28:51;12.40;11.02;8.41;4.91;39.35;39.21;38.60;34.98;24.77;0.88
73340;SPS30;61578;52.002;5.468;2023-02-01T00:29:22;11.87;10.54;8.01;4.64;37.18;37.04;36.45;32.95;23.20;0.88
73340;SPS30;61578;52.002;5.468;2023-02-01T00:29:54;11.37;10.11;7.70;4.49;35.97;35.83;35.28;31.95;22.59;0.87
73340;SPS30;61578;52.002;5.468;2023-02-01T00:30:25;10.57;9.45;7.31;4.44;35.47;35.35;34.85;31.88;23.08;0.84
73340;SPS30;61578;52.002;5.468;2023-02-01T00:31:00;10.63;9.54;7.47;4.68;37.33;37.22;36.74;33.86;24.93;0.83
73340;SPS30;61578;52.002;5.468;2023-02-01T00:31:33;11.96;10.73;8.40;5.24;41.87;41.74;41.19;37.94;27.91;0.82
73340;SPS30;61578;52.002;5.468;2023-02-01T00:32:04;12.31;11.03;8.59;5.31;42.38;42.25;41.68;38.29;27.99;0.84
73340;SPS30;61578;52.002;5.468;2023-02-01T00:32:35;11.03;9.84;7.60;4.58;36.62;36.49;35.97;32.85;23.69;0.86
73340;SPS30;61578;52.002;5.468;2023-02-01T00:33:05;10.34;9.22;7.09;4.25;33.96;33.85;33.35;30.41;21.84;0.86
73340;SPS30;61578;52.002;5.468;2023-02-01T00:33:36;11.58;10.32;7.94;4.74;37.93;37.80;37.25;33.94;24.35;0.85
73340;SPS30;61578;52.002;5.468;2023-02-01T00:34:07;10.62;9.49;7.35;4.47;35.73;35.61;35.12;32.14;23.30;0.85
73340;SPS30;61578;52.002;5.468;2023-02-01T00:34:44;10.51;9.40;7.28;4.44;35.46;35.34;34.85;31.90;23.15;0.86
73340;SPS30;61578;52.002;5.468;2023-02-01T00:35:15;11.00;9.85;7.65;4.70;37.55;37.43;36.92;33.87;24.68;0.86
73340;SPS30;61578;52.002;5.468;2023-02-01T00:35:45;10.12;9.08;7.10;4.43;35.37;35.26;34.80;32.05;23.56;0.84
73340;SPS30;61578;52.002;5.468;2023-02-01T00:36:16;11.41;10.24;8.02;5.02;40.11;39.98;39.47;36.38;26.79;0.84
73340;SPS30;61578;52.002;5.468;2023-02-01T00:36:48;10.91;9.77;7.61;4.69;37.50;37.38;36.88;33.86;24.74;0.86
73340;SPS30;61578;52.002;5.468;2023-02-01T00:37:18;10.80;9.66;7.51;4.61;36.86;36.74;36.24;33.25;24.23;0.86
73340;SPS30;61578;52.002;5.468;2023-02-01T00:37:49;10.86;9.71;7.52;4.58;36.62;36.50;35.99;32.95;23.91;0.87
73340;SPS30;61578;52.002;5.468;2023-02-01T00:38:20;10.86;9.70;7.49;4.53;36.21;36.09;35.57;32.51;23.48;0.87
73340;SPS30;61578;52.002;5.468;2023-02-01T00:38:50;10.76;9.62;7.44;4.51;36.03;35.91;35.40;32.37;23.42;0.87
73340;SPS30;61578;52.002;5.468;2023-02-01T00:39:21;10.86;9.67;7.43;4.43;35.43;35.31;34.79;31.68;22.69;0.88
73340;SPS30;61578;52.002;5.468;2023-02-01T00:39:52;13.34;11.86;9.05;5.30;42.41;42.26;41.61;37.72;26.73;0.89
73340;SPS30;61578;52.002;5.468;2023-02-01T00:40:25;11.85;10.55;8.09;4.80;38.40;38.26;37.69;34.28;24.49;0.88
73340;SPS30;61578;52.002;5.468;2023-02-01T00:41:02;10.92;9.75;7.55;4.58;36.62;36.50;35.98;32.92;23.83;0.85
73340;SPS30;61578;52.002;5.468;2023-02-01T00:41:51;11.34;10.14;7.86;4.80;38.38;38.25;37.73;34.56;25.11;0.86
73340;SPS30;61578;52.002;5.468;2023-02-01T00:42:22;11.58;10.38;8.11;5.03;40.20;40.08;39.55;36.38;26.68;0.85
73340;SPS30;61578;52.002;5.468;2023-02-01T00:42:53;11.29;10.09;7.81;4.74;37.92;37.79;37.26;34.09;24.70;0.86
73340;SPS30;61578;52.002;5.468;2023-02-01T00:43:23;11.01;9.84;7.62;4.64;37.06;36.93;36.42;33.33;24.17;0.85
73340;SPS30;61578;52.002;5.468;2023-02-01T00:43:54;11.18;9.99;7.73;4.70;37.57;37.45;36.92;33.79;24.48;0.86
73340;SPS30;61578;52.002;5.468;2023-02-01T00:44:25;10.71;9.56;7.38;4.45;35.57;35.44;34.94;31.90;23.01;0.87
73340;SPS30;61578;52.002;5.468;2023-02-01T00:44:57;11.13;9.94;7.69;4.65;37.21;37.08;36.56;33.42;24.16;0.88
73340;SPS30;61578;52.002;5.468;2023-02-01T00:45:27;11.69;10.43;8.02;4.80;38.38;38.25;37.69;34.36;24.67;0.88
73340;SPS30;61578;52.002;5.468;2023-02-01T00:45:58;11.42;10.17;7.80;4.62;36.99;36.86;36.31;33.02;23.58;0.89
73340;SPS30;61578;52.002;5.468;2023-02-01T00:46:29;11.00;9.80;7.52;4.47;35.76;35.63;35.10;31.94;22.84;0.89
73340;SPS30;61578;52.002;5.468;2023-02-01T00:47:01;11.98;10.65;8.14;4.78;38.29;38.16;37.57;34.09;24.22;0.90
73340;SPS30;61578;52.002;5.468;2023-02-01T00:47:32;11.96;10.64;8.16;4.83;38.63;38.50;37.92;34.47;24.59;0.89
73340;SPS30;61578;52.002;5.468;2023-02-01T00:48:02;12.74;11.35;8.71;5.18;41.45;41.30;40.69;37.03;26.49;0.89
73340;SPS30;61578;52.002;5.468;2023-02-01T00:48:34;12.97;11.56;8.87;5.28;42.24;42.09;41.47;37.75;27.02;0.89
73340;SPS30;61578;52.002;5.468;2023-02-01T00:49:04;11.82;10.54;8.11;4.85;38.80;38.67;38.10;34.73;24.94;0.89
73340;SPS30;61578;52.002;5.468;2023-02-01T00:49:37;11.37;10.11;7.73;4.54;36.35;36.21;35.66;32.36;22.99;0.90
73340;SPS30;61578;52.002;5.468;2023-02-01T00:50:08;12.72;11.31;8.63;5.06;40.50;40.36;39.74;36.03;25.55;0.91
73340;SPS30;61578;52.002;5.468;2023-02-01T00:50:42;12.64;11.25;8.61;5.09;40.73;40.58;39.97;36.31;25.88;0.88
73340;SPS30;61578;52.002;5.468;2023-02-01T00:51:14;11.48;10.23;7.86;4.69;37.50;37.37;36.82;33.53;24.03;0.88
73340;SPS30;61578;52.002;5.468;2023-02-01T00:51:50;12.63;11.26;8.65;5.16;41.31;41.16;40.56;36.95;26.49;0.88
73340;SPS30;61578;52.002;5.468;2023-02-01T00:52:20;13.14;11.67;8.89;5.17;41.41;41.26;40.61;36.76;25.95;0.89
73340;SPS30;61578;52.002;5.468;2023-02-01T00:52:53;11.45;10.17;7.73;4.48;35.88;35.75;35.18;31.81;22.40;0.89
73340;SPS30;61578;52.002;5.468;2023-02-01T00:53:23;12.36;10.97;8.34;4.83;38.70;38.56;37.95;34.30;24.16;0.89
73340;SPS30;61578;52.002;5.468;2023-02-01T00:53:54;12.37;10.97;8.33;4.80;38.50;38.36;37.75;34.09;23.94;0.89
73340;SPS30;61578;52.002;5.468;2023-02-01T00:54:26;11.23;9.95;7.53;4.32;34.62;34.48;33.92;30.58;21.39;0.88
73340;SPS30;61578;52.002;5.468;2023-02-01T00:54:57;12.27;10.86;8.20;4.65;37.33;37.19;36.57;32.89;22.87;0.89
73340;SPS30;61578;52.002;5.468;2023-02-01T00:55:28;12.30;10.91;8.28;4.77;38.23;38.08;37.47;33.83;23.75;0.88
73340;SPS30;61578;52.002;5.468;2023-02-01T00:55:58;11.06;9.84;7.54;4.45;35.66;35.53;35.00;31.80;22.67;0.87
73340;SPS30;61578;52.002;5.468;2023-02-01T00:56:30;12.43;11.09;8.55;5.14;41.10;40.96;40.37;36.84;26.52;0.86
73340;SPS30;61578;52.002;5.468;2023-02-01T00:57:00;12.18;10.87;8.39;5.06;40.47;40.33;39.75;36.31;26.19;0.85
73340;SPS30;61578;52.002;5.468;2023-02-01T00:57:31;10.98;9.82;7.61;4.63;37.03;36.90;36.39;33.32;24.17;0.84
73340;SPS30;61578;52.002;5.468;2023-02-01T00:58:02;12.04;10.76;8.33;5.07;40.50;40.37;39.81;36.43;26.41;0.84
73340;SPS30;61578;52.002;5.468;2023-02-01T00:58:35;10.82;9.68;7.51;4.60;36.75;36.63;36.12;33.11;24.09;0.83
73340;SPS30;61578;52.002;5.468;2023-02-01T00:59:10;11.72;10.50;8.19;5.08;40.54;40.41;39.87;36.66;26.85;0.82
73340;SPS30;61578;52.002;5.468;2023-02-01T00:59:42;9.77;8.84;7.06;4.62;36.80;36.70;36.29;33.79;25.46;0.79
73340;SPS30;61578;52.002;5.468;2023-02-01T01:00:12;9.23;8.35;6.67;4.37;34.85;34.76;34.37;32.01;24.14;0.80
73340;SPS30;61578;52.002;5.468;2023-02-01T01:00:44;9.37;8.44;6.68;4.28;34.16;34.07;33.65;31.19;23.26;0.82
73340;SPS30;61578;52.002;5.468;2023-02-01T01:01:51;10.23;9.16;7.12;4.37;34.89;34.78;34.30;31.46;22.92;0.85
73340;SPS30;61578;52.002;5.468;2023-02-01T01:02:21;10.90;9.76;7.61;4.71;37.63;37.51;37.01;34.01;24.90;0.84
73340;SPS30;61578;52.002;5.468;2023-02-01T01:02:52;10.85;9.70;7.52;4.59;36.69;36.57;36.07;33.04;23.99;0.85
73340;SPS30;61578;52.002;5.468;2023-02-01T01:03:23;11.24;10.03;7.72;4.62;36.99;36.87;36.33;33.13;23.81;0.86
73340;SPS30;61578;52.002;5.468;2023-02-01T01:03:57;11.04;9.87;7.64;4.65;37.20;37.07;36.56;33.47;24.28;0.85
73340;SPS30;61578;52.002;5.468;2023-02-01T01:04:29;10.37;9.27;7.19;4.38;34.98;34.87;34.38;31.48;22.84;0.85
73340;SPS30;61578;52.002;5.468;2023-02-01T01:05:00;10.65;9.52;7.37;4.48;35.81;35.70;35.20;32.21;23.34;0.85
73340;SPS30;61578;52.002;5.468;2023-02-01T01:05:31;11.80;10.51;8.05;4.76;38.14;38.00;37.43;34.03;24.28;0.87
73340;SPS30;61578;52.002;5.468;2023-02-01T01:06:03;12.60;11.18;8.50;4.92;39.40;39.25;38.63;34.91;24.57;0.88
73340;SPS30;61578;52.002;5.468;2023-02-01T01:06:37;11.69;10.38;7.90;4.59;36.77;36.64;36.06;32.63;23.02;0.88
73340;SPS30;61578;52.002;5.468;2023-02-01T01:07:08;11.72;10.41;7.93;4.62;37.02;36.88;36.31;32.87;23.23;0.86
73340;SPS30;61578;52.002;5.468;2023-02-01T01:07:39;11.84;10.53;8.05;4.74;37.92;37.79;37.21;33.78;24.01;0.87
73340;SPS30;61578;52.002;5.468;2023-02-01T01:08:11;12.38;10.97;8.30;4.75;38.12;37.97;37.35;33.67;23.53;0.91
73340;SPS30;61578;52.002;5.468;2023-02-01T01:08:42;13.33;11.78;8.83;4.92;39.50;39.34;38.66;34.59;23.76;0.92
73340;SPS30;61578;52.002;5.468;2023-02-01T01:09:14;11.80;10.42;7.81;4.36;34.98;34.84;34.24;30.64;21.04;0.92
73340;SPS30;61578;52.002;5.468;2023-02-01T01:09:45;12.87;11.39;8.60;4.88;39.16;39.01;38.36;34.50;23.99;0.90
73340;SPS30;61578;52.002;5.468;2023-02-01T01:10:15;11.24;9.96;7.54;4.31;34.56;34.43;33.87;30.51;21.31;0.88
73340;SPS30;61578;52.002;5.468;2023-02-01T01:10:46;10.67;9.46;7.17;4.12;33.02;32.89;32.36;29.19;20.45;0.88
73340;SPS30;61578;52.002;5.468;2023-02-01T01:11:18;11.75;10.41;7.87;4.49;36.02;35.88;35.29;31.77;22.16;0.90
73340;SPS30;61578;52.002;5.468;2023-02-01T01:11:53;11.56;10.21;7.66;4.27;34.31;34.17;33.57;30.05;20.65;0.92
73340;SPS30;61578;52.002;5.468;2023-02-01T01:12:23;11.65;10.27;7.65;4.19;33.70;33.55;32.95;29.34;19.91;0.94
73340;SPS30;61578;52.002;5.468;2023-02-01T01:12:54;13.41;11.82;8.81;4.84;38.85;38.68;37.98;33.84;22.98;0.94
73340;SPS30;61578;52.002;5.468;2023-02-01T01:13:25;13.12;11.56;8.60;4.69;37.71;37.54;36.86;32.79;22.18;0.94
73340;SPS30;61578;52.002;5.468;2023-02-01T01:13:56;12.89;11.39;8.55;4.78;38.35;38.19;37.54;33.61;23.13;0.91
73340;SPS30;61578;52.002;5.468;2023-02-01T01:14:29;12.22;10.84;8.23;4.75;38.08;37.94;37.33;33.72;23.70;0.88
73340;SPS30;61578;52.002;5.468;2023-02-01T01:15:00;11.69;10.40;7.95;4.67;37.40;37.27;36.70;33.31;23.67;0.88
73340;SPS30;61578;52.002;5.468;2023-02-01T01:15:35;11.33;10.10;7.77;4.64;37.14;37.01;36.47;33.23;23.85;0.87
73340;SPS30;61578;52.002;5.468;2023-02-01T01:16:10;11.49;10.26;7.94;4.82;38.51;38.38;37.84;34.61;25.06;0.87
73340;SPS30;61578;52.002;5.468;2023-02-01T01:16:41;11.67;10.41;8.02;4.81;38.47;38.34;37.78;34.46;24.78;0.87
73340;SPS30;61578;52.002;5.468;2023-02-01T01:17:12;11.40;10.18;7.85;4.74;37.89;37.76;37.22;34.00;24.53;0.86
73340;SPS30;61578;52.002;5.468;2023-02-01T01:17:42;11.88;10.61;8.20;4.95;39.61;39.48;38.92;35.56;25.69;0.86
73340;SPS30;61578;52.002;5.468;2023-02-01T01:18:13;11.76;10.49;8.09;4.87;38.97;38.84;38.28;34.95;25.19;0.87
73340;SPS30;61578;52.002;5.468;2023-02-01T01:18:45;12.27;10.92;8.34;4.89;39.19;39.05;38.45;34.88;24.76;0.89
73340;SPS30;61578;52.002;5.468;2023-02-01T01:19:16;12.33;10.98;8.40;4.95;39.66;39.52;38.92;35.35;25.17;0.88
73340;SPS30;61578;52.002;5.468;2023-02-01T01:19:47;11.25;10.06;7.80;4.77;38.10;37.98;37.45;34.31;24.94;0.87
73340;SPS30;61578;52.002;5.468;2023-02-01T01:20:17;10.62;9.50;7.38;4.53;36.17;36.05;35.55;32.60;23.74;0.87
73340;SPS30;61578;52.002;5.468;2023-02-01T01:20:51;11.42;10.20;7.90;4.80;38.37;38.24;37.70;34.50;25.00;0.87
73340;SPS30;61578;52.002;5.468;2023-02-01T01:21:22;11.14;9.95;7.70;4.68;37.38;37.25;36.73;33.60;24.33;0.87
73340;SPS30;61578;52.002;5.468;2023-02-01T01:21:53;10.84;9.68;7.49;4.54;36.27;36.14;35.63;32.58;23.57;0.86
73340;SPS30;61578;52.002;5.468;2023-02-01T01:22:23;11.36;10.10;7.73;4.55;36.40;36.27;35.72;32.42;23.06;0.89
73340;SPS30;61578;52.002;5.468;2023-02-01T01:22:54;12.08;10.74;8.19;4.79;38.39;38.25;37.66;34.13;24.19;0.90
73340;SPS30;61578;52.002;5.468;2023-02-01T01:23:25;12.77;11.37;8.72;5.16;41.32;41.18;40.56;36.88;26.33;0.89
73340;SPS30;61578;52.002;5.468;2023-02-01T01:23:57;13.63;12.07;9.12;5.20;41.70;41.54;40.86;36.78;25.64;0.91
73340;SPS30;61578;52.002;5.468;2023-02-01T01:24:28;12.40;10.98;8.30;4.73;37.96;37.82;37.19;33.49;23.35;0.90
73340;SPS30;61578;52.002;5.468;2023-02-01T01:24:59;11.78;10.43;7.87;4.47;35.81;35.67;35.08;31.54;21.92;0.90
73340;SPS30;61578;52.002;5.468;2023-02-01T01:25:30;13.12;11.58;8.66;4.80;38.58;38.42;37.75;33.73;23.08;0.92
73340;SPS30;61578;52.002;5.468;2023-02-01T01:26:04;12.99;11.48;8.62;4.82;38.66;38.50;37.84;33.89;23.32;0.92
73340;SPS30;61578;52.002;5.468;2023-02-01T01:26:43;14.53;12.80;9.51;5.18;41.60;41.42;40.66;36.13;24.40;0.95
73340;SPS30;61578;52.002;5.468;2023-02-01T01:27:13;14.08;12.40;9.21;5.01;40.25;40.08;39.34;34.95;23.58;0.94
73340;SPS30;61578;52.002;5.468;2023-02-01T01:27:44;13.67;12.09;9.08;5.09;40.86;40.69;40.00;35.84;24.71;0.91
73340;SPS30;61578;52.002;5.468;2023-02-01T01:28:15;12.64;11.22;8.51;4.91;39.33;39.18;38.55;34.81;24.44;0.89
73340;SPS30;61578;52.002;5.468;2023-02-01T01:28:46;11.52;10.26;7.87;4.68;37.41;37.28;36.73;33.41;23.89;0.86
73340;SPS30;61578;52.002;5.468;2023-02-01T01:29:17;11.70;10.44;8.05;4.83;38.65;38.52;37.97;34.64;24.93;0.85
73340;SPS30;61578;52.002;5.468;2023-02-01T01:29:49;12.12;10.83;8.39;5.10;40.76;40.62;40.05;36.66;26.57;0.85
73340;SPS30;61578;52.002;5.468;2023-02-01T01:30:20;11.82;10.60;8.29;5.16;41.21;41.08;40.54;37.31;27.40;0.82
73340;SPS30;61578;52.002;5.468;2023-02-01T01:30:51;10.97;9.84;7.70;4.80;38.31;38.19;37.69;34.70;25.49;0.84
73340;SPS30;61578;52.002;5.468;2023-02-01T01:31:22;11.48;10.26;7.93;4.80;38.42;38.29;37.75;34.51;24.96;0.86
73340;SPS30;61578;52.002;5.468;2023-02-01T01:31:53;11.63;10.37;7.98;4.77;38.20;38.06;37.51;34.19;24.56;0.87
73340;SPS30;61578;52.002;5.468;2023-02-01T01:32:23;10.46;9.33;7.21;4.35;34.78;34.66;34.16;31.21;22.52;0.86
73340;SPS30;61578;52.002;5.468;2023-02-01T01:32:54;10.36;9.26;7.17;4.35;34.78;34.66;34.18;31.26;22.64;0.85
73340;SPS30;61578;52.002;5.468;2023-02-01T01:33:25;11.26;10.06;7.78;4.72;37.74;37.61;37.08;33.92;24.55;0.86
73340;SPS30;61578;52.002;5.468;2023-02-01T01:33:57;12.11;10.82;8.36;5.06;40.43;40.30;39.73;36.31;26.24;0.87
73340;SPS30;61578;52.002;5.468;2023-02-01T01:34:30;10.68;9.56;7.42;4.54;36.29;36.17;35.68;32.70;23.79;0.86
73340;SPS30;61578;52.002;5.468;2023-02-01T01:35:00;10.45;9.37;7.33;4.58;36.53;36.42;35.95;33.10;24.34;0.83
73340;SPS30;61578;52.002;5.468;2023-02-01T01:35:31;10.90;9.74;7.56;4.61;36.85;36.73;36.22;33.18;24.10;0.85
73340;SPS30;61578;52.002;5.468;2023-02-01T01:36:07;10.57;9.46;7.35;4.50;35.98;35.86;35.37;32.44;23.62;0.85
73340;SPS30;61578;52.002;5.468;2023-02-01T01:36:41;9.70;8.71;6.85;4.32;34.46;34.36;33.92;31.32;23.15;0.85
73340;SPS30;61578;52.002;5.468;2023-02-01T01:37:12;10.10;9.06;7.09;4.42;35.33;35.22;34.76;32.01;23.53;0.85
73340;SPS30;61578;52.002;5.468;2023-02-01T01:37:45;10.24;9.21;7.26;4.60;36.73;36.62;36.16;33.43;24.79;0.84
73340;SPS30;61578;52.002;5.468;2023-02-01T01:38:15;11.58;10.41;8.19;5.18;41.34;41.21;40.70;37.59;27.83;0.84
73340;SPS30;61578;52.002;5.468;2023-02-01T01:38:46;10.48;9.44;7.46;4.77;38.07;37.96;37.50;34.73;25.86;0.82
73340;SPS30;61578;52.002;5.468;2023-02-01T01:39:17;10.43;9.40;7.46;4.81;38.36;38.25;37.80;35.08;26.24;0.81
73340;SPS30;61578;52.002;5.468;2023-02-01T01:39:48;9.51;8.57;6.78;4.35;34.68;34.58;34.17;31.67;23.62;0.82
73340;SPS30;61578;52.002;5.468;2023-02-01T01:40:19;10.63;9.55;7.49;4.70;37.54;37.43;36.95;34.08;25.14;0.83
73340;SPS30;61578;52.002;5.468;2023-02-01T01:40:50;10.56;9.46;7.38;4.56;36.41;36.30;35.81;32.91;24.07;0.84
73340;SPS30;61578;52.002;5.468;2023-02-01T01:41:22;10.89;9.73;7.54;4.59;36.70;36.57;36.06;33.02;23.95;0.85
73340;SPS30;61578;52.002;5.468;2023-02-01T01:41:56;11.23;9.99;7.63;4.48;35.85;35.72;35.18;31.91;22.66;0.88
73340;SPS30;61578;52.002;5.468;2023-02-01T01:42:27;11.48;10.20;7.77;4.54;36.33;36.20;35.63;32.27;22.83;0.87
73340;SPS30;61578;52.002;5.468;2023-02-01T01:42:58;12.84;11.41;8.70;5.09;40.78;40.63;40.00;36.26;25.69;0.86
73340;SPS30;61578;52.002;5.468;2023-02-01T01:45:34;11.77;10.45;7.94;4.59;36.78;36.64;36.06;32.58;22.92;0.89
73340;SPS30;61578;52.002;5.468;2023-02-01T01:46:05;12.38;10.98;8.33;4.81;38.52;38.38;37.76;34.10;23.95;0.89
73340;SPS30;61578;52.002;5.468;2023-02-01T01:46:36;12.13;10.73;8.08;4.56;36.60;36.45;35.84;32.18;22.29;0.92
73340;SPS30;61578;52.002;5.468;2023-02-01T01:47:10;12.92;11.44;8.64;4.92;39.46;39.31;38.66;34.79;24.23;0.91
73340;SPS30;61578;52.002;5.468;2023-02-01T01:47:43;13.46;11.93;9.04;5.20;41.64;41.49;40.82;36.82;25.79;0.89
73340;SPS30;61578;52.002;5.468;2023-02-01T01:49:31;13.49;11.90;8.88;4.90;39.32;39.16;38.46;34.30;23.37;0.91
73340;SPS30;61578;52.002;5.468;2023-02-01T01:50:03;13.43;11.89;8.98;5.10;40.93;40.77;40.10;36.07;25.10;0.89
73340;SPS30;61578;52.002;5.468;2023-02-01T01:51:00;11.87;10.51;7.93;4.50;36.13;35.99;35.39;31.82;22.13;0.91
73340;SPS30;61578;52.002;5.468;2023-02-01T01:51:42;14.39;12.72;9.56;5.37;43.07;42.89;42.16;37.80;26.08;0.93
73340;SPS30;61578;52.002;5.468;2023-02-01T01:52:23;12.85;11.38;8.60;4.90;39.30;39.15;38.51;34.66;24.15;0.91
73340;SPS30;61578;52.002;5.468;2023-02-01T01:52:54;12.43;11.07;8.48;5.03;40.22;40.08;39.48;35.90;25.63;0.88
73340;SPS30;61578;52.002;5.468;2023-02-01T01:53:32;12.08;10.76;8.25;4.89;39.17;39.03;38.45;34.97;24.99;0.88
73340;SPS30;61578;52.002;5.468;2023-02-01T01:54:16;12.52;11.11;8.45;4.90;39.30;39.15;38.53;34.85;24.57;0.90
73340;SPS30;61578;52.002;5.468;2023-02-01T01:54:51;12.99;11.50;8.67;4.92;39.45;39.29;38.64;34.73;24.13;0.91
73340;SPS30;61578;52.002;5.468;2023-02-01T01:55:24;13.21;11.69;8.81;5.00;40.07;39.91;39.24;35.27;24.49;0.92
73340;SPS30;61578;52.002;5.468;2023-02-01T01:56:01;13.20;11.65;8.70;4.81;38.65;38.49;37.81;33.75;23.04;0.93
73340;SPS30;61578;52.002;5.468;2023-02-01T01:56:32;14.33;12.65;9.44;5.21;41.82;41.64;40.90;36.49;24.87;0.94
73340;SPS30;61578;52.002;5.468;2023-02-01T01:57:12;12.47;11.04;8.32;4.72;37.85;37.70;37.07;33.32;23.15;0.92
73340;SPS30;61578;52.002;5.468;2023-02-01T01:57:54;13.21;11.71;8.86;5.07;40.67;40.52;39.86;35.92;25.10;0.91
73340;SPS30;61578;52.002;5.468;2023-02-01T01:58:35;12.10;10.71;8.08;4.58;36.71;36.56;35.95;32.31;22.43;0.91
73340;SPS30;61578;52.002;5.468;2023-02-01T01:59:07;12.79;11.33;8.56;4.89;39.19;39.04;38.39;34.57;24.11;0.90
73340;SPS30;61578;52.002;5.468;2023-02-01T01:59:40;11.24;9.98;7.58;4.39;35.15;35.02;34.47;31.15;21.93;0.90
73340;SPS30;61578;52.002;5.468;2023-02-01T02:00:20;13.22;11.74;8.93;5.18;41.49;41.33;40.68;36.79;25.93;0.90
73340;SPS30;61578;52.002;5.468;2023-02-01T02:00:52;13.88;12.31;9.33;5.36;42.98;42.81;42.12;38.00;26.63;0.89
73340;SPS30;61578;52.002;5.468;2023-02-01T02:01:24;13.21;11.74;8.95;5.23;41.87;41.71;41.07;37.20;26.33;0.88
73340;SPS30;61578;52.002;5.468;2023-02-01T02:01:56;11.10;9.88;7.55;4.45;35.61;35.48;34.94;31.72;22.56;0.89
73340;SPS30;61578;52.002;5.468;2023-02-01T02:02:27;10.74;9.56;7.31;4.31;34.47;34.35;33.83;30.71;21.85;0.89
73340;SPS30;61578;52.002;5.468;2023-02-01T02:02:59;11.55;10.26;7.82;4.56;36.55;36.41;35.85;32.47;22.97;0.88